Observation data for Brownfield on 08/20/2019      Previous  Date       Current Mesonet Observations  Soil Data  Daily Summary Page  Observations in Plain Language
KBWS 200500Z 14011KT 29/14 A3008 RMK A01 T02910139  RH  041%=      5-min Rain = 0
KBWS 200505Z 14011KT 29/14 A3008 RMK A01 T02900140  RH  042%=      5-min Rain = 0
KBWS 200510Z 14011KT 29/14 A3008 RMK A01 T02880140  RH  042%=      5-min Rain = 0
KBWS 200515Z 14011KT 29/14 A3008 RMK A01 T02870140  RH  042%=      5-min Rain = 0
KBWS 200520Z 14011KT 29/14 A3008 RMK A01 T02850141  RH  043%=      5-min Rain = 0
KBWS 200525Z 15010KT 28/14 A3008 RMK A01 T02840141  RH  043%=      5-min Rain = 0
KBWS 200530Z 15010KT 28/14 A3008 RMK A01 T02830141  RH  044%=      5-min Rain = 0
KBWS 200535Z 15009KT 28/14 A3008 RMK A01 T02820142  RH  044%=      5-min Rain = 0
KBWS 200540Z 15010KT 28/14 A3008 RMK A01 T02800142  RH  045%=      5-min Rain = 0
KBWS 200545Z 15010KT 28/14 A3008 RMK A01 T02790143  RH  045%=      5-min Rain = 0
KBWS 200550Z 16010KT 28/14 A3008 RMK A01 T02770143  RH  046%=      5-min Rain = 0
KBWS 200555Z 16010KT 28/14 A3008 RMK A01 T02760143  RH  046%=      5-min Rain = 0
KBWS 200600Z 16010KT 27/14 A3008 RMK A01 T02740143  RH  047%=      5-min Rain = 0
KBWS 200605Z 15010KT 27/14 A3008 RMK A01 T02730143  RH  047%=      5-min Rain = 0
KBWS 200610Z 16010KT 27/14 A3008 RMK A01 T02730143  RH  047%=      5-min Rain = 0
KBWS 200615Z 16010KT 27/14 A3008 RMK A01 T02720143  RH  047%=      5-min Rain = 0
KBWS 200620Z 15010KT 27/14 A3008 RMK A01 T02710143  RH  048%=      5-min Rain = 0
KBWS 200625Z 15009KT 27/14 A3008 RMK A01 T02710144  RH  048%=      5-min Rain = 0
KBWS 200630Z 15009KT 27/14 A3008 RMK A01 T02700144  RH  048%=      5-min Rain = 0
KBWS 200635Z 15010KT 27/14 A3008 RMK A01 T02700144  RH  048%=      5-min Rain = 0
KBWS 200640Z 15010KT 27/14 A3008 RMK A01 T02690143  RH  048%=      5-min Rain = 0
KBWS 200645Z 15011KT 27/14 A3008 RMK A01 T02700144  RH  048%=      5-min Rain = 0
KBWS 200650Z 15011KT 27/14 A3008 RMK A01 T02710144  RH  048%=      5-min Rain = 0
KBWS 200655Z 16010KT 27/15 A3008 RMK A01 T02710145  RH  048%=      5-min Rain = 0
KBWS 200700Z 16010KT 27/15 A3008 RMK A01 T02700145  RH  048%=      5-min Rain = 0
KBWS 200705Z 16009KT 27/15 A3008 RMK A01 T02690145  RH  049%=      5-min Rain = 0
KBWS 200710Z 16010KT 27/15 A3008 RMK A01 T02680146  RH  049%=      5-min Rain = 0
KBWS 200715Z 16009KT 27/15 A3008 RMK A01 T02680146  RH  049%=      5-min Rain = 0
KBWS 200720Z 16009KT 27/15 A3008 RMK A01 T02670146  RH  049%=      5-min Rain = 0
KBWS 200725Z 16009KT 27/15 A3008 RMK A01 T02660146  RH  050%=      5-min Rain = 0
KBWS 200730Z 17008KT 27/15 A3008 RMK A01 T02650146  RH  050%=      5-min Rain = 0
KBWS 200735Z 17008KT 26/15 A3009 RMK A01 T02640147  RH  051%=      5-min Rain = 0
KBWS 200740Z 17008KT 26/15 A3009 RMK A01 T02630147  RH  051%=      5-min Rain = 0
KBWS 200745Z 17008KT 26/15 A3009 RMK A01 T02620147  RH  051%=      5-min Rain = 0
KBWS 200750Z 17008KT 26/15 A3009 RMK A01 T02610147  RH  052%=      5-min Rain = 0
KBWS 200755Z 17008KT 26/15 A3009 RMK A01 T02600147  RH  052%=      5-min Rain = 0
KBWS 200800Z 17009KT 26/15 A3009 RMK A01 T02590147  RH  052%=      5-min Rain = 0
KBWS 200805Z 17008KT 26/15 A3009 RMK A01 T02570147  RH  053%=      5-min Rain = 0
KBWS 200810Z 17008KT 26/15 A3009 RMK A01 T02550146  RH  053%=      5-min Rain = 0
KBWS 200815Z 17007KT 25/15 A3009 RMK A01 T02530146  RH  054%=      5-min Rain = 0
KBWS 200820Z 17007KT 25/15 A3009 RMK A01 T02520146  RH  054%=      5-min Rain = 0
KBWS 200825Z 17007KT 25/15 A3009 RMK A01 T02500146  RH  055%=      5-min Rain = 0
KBWS 200830Z 17006KT 25/15 A3009 RMK A01 T02480146  RH  056%=      5-min Rain = 0
KBWS 200835Z 16007KT 25/15 A3009 RMK A01 T02470146  RH  056%=      5-min Rain = 0
KBWS 200840Z 17007KT 25/15 A3009 RMK A01 T02460146  RH  056%=      5-min Rain = 0
KBWS 200845Z 16007KT 25/15 A3009 RMK A01 T02450146  RH  056%=      5-min Rain = 0
KBWS 200850Z 16007KT 24/15 A3009 RMK A01 T02430145  RH  057%=      5-min Rain = 0
KBWS 200855Z 16006KT 24/15 A3009 RMK A01 T02410145  RH  057%=      5-min Rain = 0
KBWS 200900Z 17006KT 24/14 A3009 RMK A01 T02400144  RH  058%=      5-min Rain = 0
KBWS 200905Z 16006KT 24/14 A3009 RMK A01 T02390143  RH  057%=      5-min Rain = 0
KBWS 200910Z 16007KT 24/14 A3009 RMK A01 T02380143  RH  058%=      5-min Rain = 0
KBWS 200915Z 16007KT 24/14 A3009 RMK A01 T02360143  RH  058%=      5-min Rain = 0
KBWS 200920Z 17006KT 24/14 A3009 RMK A01 T02350142  RH  058%=      5-min Rain = 0
KBWS 200925Z 17006KT 24/14 A3009 RMK A01 T02350142  RH  058%=      5-min Rain = 0
KBWS 200930Z 17006KT 23/14 A301 RMK A01 T02340142  RH  059%=      5-min Rain = 0
KBWS 200935Z 17005KT 23/14 A301 RMK A01 T02330142  RH  059%=      5-min Rain = 0
KBWS 200940Z 17005KT 23/14 A301 RMK A01 T02320141  RH  059%=      5-min Rain = 0
KBWS 200945Z 17004KT 23/14 A301 RMK A01 T02310141  RH  059%=      5-min Rain = 0
KBWS 200950Z 17004KT 23/14 A301 RMK A01 T02300141  RH  060%=      5-min Rain = 0
KBWS 200955Z 17004KT 23/14 A301 RMK A01 T02290141  RH  060%=      5-min Rain = 0
KBWS 201000Z 18005KT 23/14 A301 RMK A01 T02290142  RH  060%=      5-min Rain = 0
KBWS 201005Z 18005KT 23/14 A301 RMK A01 T02300141  RH  060%=      5-min Rain = 0
KBWS 201010Z 18005KT 23/14 A301 RMK A01 T02300141  RH  060%=      5-min Rain = 0
KBWS 201015Z 18006KT 23/14 A301 RMK A01 T02300141  RH  060%=      5-min Rain = 0
KBWS 201020Z 18006KT 23/14 A301 RMK A01 T02300141  RH  060%=      5-min Rain = 0
KBWS 201025Z 18006KT 23/14 A301 RMK A01 T02310140  RH  059%=      5-min Rain = 0
KBWS 201030Z 19005KT 23/14 A301 RMK A01 T02310139  RH  059%=      5-min Rain = 0
KBWS 201035Z 20005KT 23/14 A301 RMK A01 T02310139  RH  058%=      5-min Rain = 0
KBWS 201040Z 20005KT 23/14 A301 RMK A01 T02320140  RH  059%=      5-min Rain = 0
KBWS 201045Z 20005KT 23/14 A301 RMK A01 T02300141  RH  060%=      5-min Rain = 0
KBWS 201050Z 20005KT 23/14 A301 RMK A01 T02290143  RH  061%=      5-min Rain = 0
KBWS 201055Z 20005KT 23/14 A301 RMK A01 T02280143  RH  061%=      5-min Rain = 0
KBWS 201100Z 20006KT 23/14 A301 RMK A01 T02270141  RH  061%=      5-min Rain = 0
KBWS 201105Z 20006KT 23/14 A301 RMK A01 T02270141  RH  061%=      5-min Rain = 0
KBWS 201110Z 20006KT 23/14 A301 RMK A01 T02280139  RH  060%=      5-min Rain = 0
KBWS 201115Z 20006KT 23/14 A301 RMK A01 T02280138  RH  059%=      5-min Rain = 0
KBWS 201120Z 19006KT 23/14 A301 RMK A01 T02270138  RH  059%=      5-min Rain = 0
KBWS 201125Z 19007KT 23/14 A301 RMK A01 T02270137  RH  059%=      5-min Rain = 0
KBWS 201130Z 19007KT 23/14 A301 RMK A01 T02270137  RH  059%=      5-min Rain = 0
KBWS 201135Z 19007KT 23/14 A301 RMK A01 T02290137  RH  059%=      5-min Rain = 0
KBWS 201140Z 19008KT 23/14 A301 RMK A01 T02300138  RH  058%=      5-min Rain = 0
KBWS 201145Z 19008KT 23/14 A301 RMK A01 T02310139  RH  058%=      5-min Rain = 0
KBWS 201150Z 20007KT 23/14 A301 RMK A01 T02310140  RH  059%=      5-min Rain = 0
KBWS 201155Z 20007KT 23/14 A301 RMK A01 T02290141  RH  060%=      5-min Rain = 0
KBWS 201200Z 20007KT 23/14 A3011 RMK A01 T02270141  RH  061%=      5-min Rain = 0
KBWS 201205Z 20006KT 23/14 A3011 RMK A01 T02250141  RH  061%=      5-min Rain = 0
KBWS 201210Z 20006KT 23/14 A3011 RMK A01 T02250140  RH  061%=      5-min Rain = 0
KBWS 201215Z 20006KT 22/14 A3011 RMK A01 T02240141  RH  062%=      5-min Rain = 0
KBWS 201220Z 20006KT 22/14 A3012 RMK A01 T02230141  RH  062%=      5-min Rain = 0
KBWS 201225Z 20005KT 22/14 A3012 RMK A01 T02230141  RH  062%=      5-min Rain = 0
KBWS 201230Z 20005KT 22/14 A3012 RMK A01 T02230141  RH  062%=      5-min Rain = 0
KBWS 201235Z 21004KT 22/14 A3012 RMK A01 T02220142  RH  063%=      5-min Rain = 0
KBWS 201240Z 23003KT 22/14 A3013 RMK A01 T02220143  RH  064%=      5-min Rain = 0
KBWS 201245Z 22002KT 22/14 A3013 RMK A01 T02220143  RH  064%=      5-min Rain = 0
KBWS 201250Z 21002KT 22/14 A3013 RMK A01 T02240143  RH  062%=      5-min Rain = 0
KBWS 201255Z 19003KT 23/14 A3013 RMK A01 T02270143  RH  062%=      5-min Rain = 0
KBWS 201300Z 18004KT 23/14 A3013 RMK A01 T02300143  RH  061%=      5-min Rain = 0
KBWS 201305Z 18005KT 23/14 A3013 RMK A01 T02330142  RH  059%=      5-min Rain = 0
KBWS 201310Z 18005KT 24/14 A3013 RMK A01 T02360143  RH  058%=      5-min Rain = 0
KBWS 201315Z 19005KT 24/14 A3013 RMK A01 T02400144  RH  058%=      5-min Rain = 0
KBWS 201320Z 19005KT 24/15 A3013 RMK A01 T02440146  RH  057%=      5-min Rain = 0
KBWS 201325Z 20006KT 25/15 A3013 RMK A01 T02470147  RH  056%=      5-min Rain = 0
KBWS 201330Z 20006KT 25/15 A3014 RMK A01 T02480150  RH  057%=      5-min Rain = 0
KBWS 201335Z 20007KT 25/15 A3014 RMK A01 T02510151  RH  056%=      5-min Rain = 0
KBWS 201340Z 20007KT 25/15 A3014 RMK A01 T02520152  RH  056%=      5-min Rain = 0
KBWS 201345Z 20008KT 25/15 A3014 RMK A01 T02540154  RH  056%=      5-min Rain = 0
KBWS 201350Z 20008KT 26/15 A3014 RMK A01 T02560154  RH  056%=      5-min Rain = 0
KBWS 201355Z 21008KT 26/16 A3014 RMK A01 T02590156  RH  055%=      5-min Rain = 0
KBWS 201400Z 21008KT 26/16 A3014 RMK A01 T02630159  RH  055%=      5-min Rain = 0
KBWS 201405Z 21008KT 27/16 A3014 RMK A01 T02660162  RH  055%=      5-min Rain = 0
KBWS 201410Z 22008KT 27/16 A3014 RMK A01 T02660163  RH  056%=      5-min Rain = 0
KBWS 201415Z 22008KT 27/16 A3014 RMK A01 T02670164  RH  056%=      5-min Rain = 0
KBWS 201420Z 22009KT 27/16 A3014 RMK A01 T02680164  RH  055%=      5-min Rain = 0
KBWS 201425Z 21008KT 27/17 A3014 RMK A01 T02710166  RH  055%=      5-min Rain = 0
KBWS 201430Z 21009KT 28/17 A3014 RMK A01 T02770169  RH  054%=      5-min Rain = 0
KBWS 201435Z 21011KT 28/17 A3014 RMK A01 T02760170  RH  055%=      5-min Rain = 0
KBWS 201440Z 21012KT 28/17 A3014 RMK A01 T02770172  RH  056%=      5-min Rain = 0
KBWS 201445Z 21011KT 28/17 A3014 RMK A01 T02760173  RH  056%=      5-min Rain = 0
KBWS 201450Z 21011KT 28/17 A3014 RMK A01 T02760173  RH  056%=      5-min Rain = 0
KBWS 201455Z 21012G17KT 28/17 A3014 RMK A01 T02770174  RH  056%=      5-min Rain = 0
KBWS 201500Z 21012KT 28/17 A3014 RMK A01 T02820174  RH  055%=      5-min Rain = 0
KBWS 201505Z 21012KT 28/17 A3014 RMK A01 T02810173  RH  055%=      5-min Rain = 0
KBWS 201510Z 21012KT 28/17 A3014 RMK A01 T02820172  RH  054%=      5-min Rain = 0
KBWS 201515Z 21011KT 28/17 A3014 RMK A01 T02830173  RH  054%=      5-min Rain = 0
KBWS 201520Z 22012KT 28/17 A3014 RMK A01 T02840172  RH  053%=      5-min Rain = 0
KBWS 201525Z 22011KT 29/17 A3014 RMK A01 T02870171  RH  052%=      5-min Rain = 0
KBWS 201530Z 22012KT 29/17 A3014 RMK A01 T02890170  RH  051%=      5-min Rain = 0
KBWS 201535Z 21011KT 29/17 A3014 RMK A01 T02910170  RH  050%=      5-min Rain = 0
KBWS 201540Z 19012KT 29/17 A3014 RMK A01 T02940170  RH  049%=      5-min Rain = 0
KBWS 201545Z 20012KT 30/17 A3014 RMK A01 T02970169  RH  048%=      5-min Rain = 0
KBWS 201550Z 20012KT 30/17 A3014 RMK A01 T03010170  RH  048%=      5-min Rain = 0
KBWS 201555Z 20012KT 30/17 A3014 RMK A01 T03040171  RH  047%=      5-min Rain = 0
KBWS 201600Z 20012G17KT 30/17 A3014 RMK A01 T03010172  RH  048%=      5-min Rain = 0
KBWS 201605Z 21012KT 30/17 A3014 RMK A01 T03030171  RH  047%=      5-min Rain = 0
KBWS 201610Z 19012G17KT 31/17 A3014 RMK A01 T03070171  RH  046%=      5-min Rain = 0
KBWS 201615Z 20012KT 31/17 A3014 RMK A01 T03080170  RH  046%=      5-min Rain = 0
KBWS 201620Z 20011KT 31/17 A3014 RMK A01 T03080169  RH  045%=      5-min Rain = 0
KBWS 201625Z 20011KT 31/17 A3014 RMK A01 T03120169  RH  044%=      5-min Rain = 0
KBWS 201630Z 19011KT 31/17 A3014 RMK A01 T03120167  RH  044%=      5-min Rain = 0
KBWS 201635Z 21009KT 31/17 A3014 RMK A01 T03100169  RH  045%=      5-min Rain = 0
KBWS 201640Z 19010G15KT 32/17 A3014 RMK A01 T03150165  RH  042%=      5-min Rain = 0
KBWS 201645Z 19010KT 32/16 A3014 RMK A01 T03160159  RH  041%=      5-min Rain = 0
KBWS 201650Z 21009KT 32/17 A3014 RMK A01 T03170165  RH  042%=      5-min Rain = 0
KBWS 201655Z 21009KT 32/16 A3014 RMK A01 T03210163  RH  041%=      5-min Rain = 0
KBWS 201700Z 21008KT 32/17 A3014 RMK A01 T03200165  RH  041%=      5-min Rain = 0
KBWS 201705Z 20008G14KT 32/16 A3014 RMK A01 T03240161  RH  039%=      5-min Rain = 0
KBWS 201710Z 19010G15KT 33/16 A3013 RMK A01 T03310159  RH  038%=      5-min Rain = 0
KBWS 201715Z 20009KT 33/16 A3013 RMK A01 T03270160  RH  038%=      5-min Rain = 0
KBWS 201720Z 18010KT 33/16 A3013 RMK A01 T03290158  RH  038%=      5-min Rain = 0
KBWS 201725Z 22008G13KT 33/16 A3013 RMK A01 T03250161  RH  039%=      5-min Rain = 0
KBWS 201730Z 19008KT 33/16 A3013 RMK A01 T03260156  RH  038%=      5-min Rain = 0
KBWS 201735Z 19008G13KT 33/16 A3013 RMK A01 T03260160  RH  039%=      5-min Rain = 0
KBWS 201740Z 20009G15KT 33/16 A3013 RMK A01 T03310156  RH  037%=      5-min Rain = 0
KBWS 201745Z 20007G14KT 33/16 A3013 RMK A01 T03330158  RH  037%=      5-min Rain = 0
KBWS 201750Z 20008KT 34/16 A3013 RMK A01 T03380156  RH  035%=      5-min Rain = 0
KBWS 201755Z 18009KT 34/16 A3013 RMK A01 T03380156  RH  035%=      5-min Rain = 0
KBWS 201800Z 16008KT 34/16 A3013 RMK A01 T03400157  RH  035%=      5-min Rain = 0
KBWS 201805Z 15007G12KT 34/16 A3013 RMK A01 T03390155  RH  035%=      5-min Rain = 0
KBWS 201810Z 15007KT 34/16 A3013 RMK A01 T03420155  RH  034%=      5-min Rain = 0
KBWS 201815Z 19008KT 35/15 A3013 RMK A01 T03460154  RH  033%=      5-min Rain = 0
KBWS 201820Z 18008G14KT 35/15 A3013 RMK A01 T03450151  RH  033%=      5-min Rain = 0
KBWS 201825Z 15011G16KT 34/15 A3013 RMK A01 T03420148  RH  033%=      5-min Rain = 0
KBWS 201830Z 17009G14KT 34/14 A3013 RMK A01 T03420144  RH  032%=      5-min Rain = 0
KBWS 201835Z 15009KT 35/14 A3012 RMK A01 T03480138  RH  030%=      5-min Rain = 0
KBWS 201840Z 16010KT 35/14 A3012 RMK A01 T03480137  RH  030%=      5-min Rain = 0
KBWS 201845Z 16009G16KT 35/14 A3012 RMK A01 T03460143  RH  031%=      5-min Rain = 0
KBWS 201850Z 16008G16KT 35/14 A3012 RMK A01 T03460139  RH  030%=      5-min Rain = 0
KBWS 201855Z 17009G16KT 35/14 A3012 RMK A01 T03460143  RH  031%=      5-min Rain = 0
KBWS 201900Z 13009KT 35/14 A3012 RMK A01 T03450143  RH  031%=      5-min Rain = 0
KBWS 201905Z 14011KT 35/15 A3012 RMK A01 T03480147  RH  031%=      5-min Rain = 0
KBWS 201910Z 13009G14KT 35/15 A3012 RMK A01 T03470147  RH  032%=      5-min Rain = 0
KBWS 201915Z 16009G14KT 35/15 A3011 RMK A01 T03480147  RH  031%=      5-min Rain = 0
KBWS 201920Z 17013G18KT 35/15 A3011 RMK A01 T03490146  RH  031%=      5-min Rain = 0
KBWS 201925Z 15011KT 35/14 A3011 RMK A01 T03530144  RH  030%=      5-min Rain = 0
KBWS 201930Z 14013G19KT 36/14 A3011 RMK A01 T03560142  RH  029%=      5-min Rain = 0
KBWS 201935Z 16012KT 36/14 A3011 RMK A01 T03560144  RH  030%=      5-min Rain = 0
KBWS 201940Z 16008KT 35/14 A3011 RMK A01 T03530143  RH  030%=      5-min Rain = 0
KBWS 201945Z 16010G15KT 36/14 A3011 RMK A01 T03550141  RH  029%=      5-min Rain = 0
KBWS 201950Z 15012KT 36/13 A3011 RMK A01 T03620132  RH  026%=      5-min Rain = 0
KBWS 201955Z 14009KT 35/13 A3011 RMK A01 T03530132  RH  028%=      5-min Rain = 0
KBWS 202000Z 15011G16KT 36/13 A301 RMK A01 T03560128  RH  027%=      5-min Rain = 0
KBWS 202005Z 16010G15KT 36/12 A301 RMK A01 T03580121  RH  025%=      5-min Rain = 0
KBWS 202010Z 15010G18KT 36/13 A301 RMK A01 T03550132  RH  027%=      5-min Rain = 0
KBWS 202015Z 18011G19KT 36/14 A301 RMK A01 T03580139  RH  028%=      5-min Rain = 0
KBWS 202020Z 16009G15KT 36/13 A301 RMK A01 T03630127  RH  025%=      5-min Rain = 0
KBWS 202025Z 17010G19KT 36/13 A301 RMK A01 T03590129  RH  026%=      5-min Rain = 0
KBWS 202030Z 18009G15KT 36/14 A3009 RMK A01 T03570135  RH  028%=      5-min Rain = 0
KBWS 202035Z 15009G17KT 36/14 A3009 RMK A01 T03550140  RH  029%=      5-min Rain = 0
KBWS 202040Z 15014G19KT 36/14 A3009 RMK A01 T03610137  RH  027%=      5-min Rain = 0
KBWS 202045Z 15010G15KT 36/13 A3009 RMK A01 T03560132  RH  027%=      5-min Rain = 0
KBWS 202050Z 13013G18KT 36/13 A3009 RMK A01 T03620127  RH  026%=      5-min Rain = 0
KBWS 202055Z 13009G14KT 36/12 A3009 RMK A01 T03570123  RH  026%=      5-min Rain = 0
KBWS 202100Z 13014KT 36/12 A3008 RMK A01 T03600120  RH  025%=      5-min Rain = 0
KBWS 202105Z 17010G16KT 36/12 A3008 RMK A01 T03630120  RH  024%=      5-min Rain = 0
KBWS 202110Z 16011G17KT 36/13 A3008 RMK A01 T03620132  RH  026%=      5-min Rain = 0
KBWS 202115Z 16009G16KT 36/13 A3007 RMK A01 T03590131  RH  027%=      5-min Rain = 0
KBWS 202120Z 12011G16KT 36/14 A3007 RMK A01 T03610136  RH  027%=      5-min Rain = 0
KBWS 202125Z 14011KT 36/14 A3007 RMK A01 T03590135  RH  027%=      5-min Rain = 0
KBWS 202130Z 15011KT 36/14 A3007 RMK A01 T03570136  RH  028%=      5-min Rain = 0
KBWS 202135Z 16011KT 36/13 A3007 RMK A01 T03600129  RH  026%=      5-min Rain = 0
KBWS 202140Z 14010G19KT 36/13 A3007 RMK A01 T03630126  RH  025%=      5-min Rain = 0
KBWS 202145Z 14010KT 36/13 A3007 RMK A01 T03610126  RH  025%=      5-min Rain = 0
KBWS 202150Z 17010G15KT 36/13 A3006 RMK A01 T03580125  RH  026%=      5-min Rain = 0
KBWS 202155Z 14011G20KT 36/13 A3006 RMK A01 T03610128  RH  026%=      5-min Rain = 0
KBWS 202200Z 12013KT 36/12 A3006 RMK A01 T03600124  RH  025%=      5-min Rain = 0
KBWS 202205Z 14009G18KT 36/11 A3006 RMK A01 T03640114  RH  023%=      5-min Rain = 0
KBWS 202210Z 13010KT 36/11 A3006 RMK A01 T03630113  RH  023%=      5-min Rain = 0
KBWS 202215Z 14010G18KT 36/11 A3006 RMK A01 T03590108  RH  023%=      5-min Rain = 0
KBWS 202220Z 14011KT 36/11 A3006 RMK A01 T03590108  RH  023%=      5-min Rain = 0
KBWS 202225Z 15009G15KT 36/11 A3006 RMK A01 T03590109  RH  023%=      5-min Rain = 0
KBWS 202230Z 16010KT 36/11 A3006 RMK A01 T03610107  RH  022%=      5-min Rain = 0
KBWS 202235Z 15010G15KT 36/11 A3005 RMK A01 T03610112  RH  023%=      5-min Rain = 0
KBWS 202240Z 16010G16KT 37/12 A3005 RMK A01 T03660115  RH  023%=      5-min Rain = 0
KBWS 202245Z 15011G16KT 36/12 A3005 RMK A01 T03640118  RH  024%=      5-min Rain = 0
KBWS 202250Z 15013G19KT 36/11 A3005 RMK A01 T03610111  RH  023%=      5-min Rain = 0
KBWS 202255Z 16009G15KT 36/11 A3005 RMK A01 T03620105  RH  022%=      5-min Rain = 0
KBWS 202300Z 15010G15KT 36/10 A3005 RMK A01 T03620103  RH  022%=      5-min Rain = 0
KBWS 202305Z 13013G18KT 36/10 A3005 RMK A01 T03610096  RH  021%=      5-min Rain = 0
KBWS 202310Z 14011KT 36/10 A3005 RMK A01 T03610104  RH  022%=      5-min Rain = 0
KBWS 202315Z 14011KT 36/11 A3005 RMK A01 T03630112  RH  023%=      5-min Rain = 0
KBWS 202320Z 14012G17KT 37/11 A3005 RMK A01 T03650114  RH  023%=      5-min Rain = 0
KBWS 202325Z 14011G17KT 36/11 A3005 RMK A01 T03590112  RH  023%=      5-min Rain = 0
KBWS 202330Z 14010KT 36/12 A3005 RMK A01 T03570115  RH  024%=      5-min Rain = 0
KBWS 202335Z 15013KT 36/11 A3005 RMK A01 T03580112  RH  024%=      5-min Rain = 0
KBWS 202340Z 16012KT 36/11 A3005 RMK A01 T03570110  RH  023%=      5-min Rain = 0
KBWS 202345Z 15012KT 36/11 A3005 RMK A01 T03580111  RH  023%=      5-min Rain = 0
KBWS 202350Z 15008KT 36/11 A3005 RMK A01 T03550111  RH  024%=      5-min Rain = 0
KBWS 202355Z 17010KT 36/11 A3005 RMK A01 T03560111  RH  024%=      5-min Rain = 0
KBWS 210000Z 14009KT 35/11 A3005 RMK A01 T03540112  RH  024%=      5-min Rain = 0
KBWS 210005Z 15011G17KT 35/11 A3005 RMK A01 T03500111  RH  024%=      5-min Rain = 0
KBWS 210010Z 15011KT 35/11 A3005 RMK A01 T03500109  RH  024%=      5-min Rain = 0
KBWS 210015Z 16012KT 35/11 A3005 RMK A01 T03480108  RH  024%=      5-min Rain = 0
KBWS 210020Z 16011KT 35/11 A3005 RMK A01 T03470109  RH  024%=      5-min Rain = 0
KBWS 210025Z 15012KT 35/11 A3005 RMK A01 T03470111  RH  025%=      5-min Rain = 0
KBWS 210030Z 15012KT 35/11 A3005 RMK A01 T03450111  RH  025%=      5-min Rain = 0
KBWS 210035Z 15011KT 34/11 A3005 RMK A01 T03440111  RH  025%=      5-min Rain = 0
KBWS 210040Z 15010KT 34/11 A3005 RMK A01 T03430112  RH  025%=      5-min Rain = 0
KBWS 210045Z 16011KT 34/11 A3005 RMK A01 T03440111  RH  025%=      5-min Rain = 0
KBWS 210050Z 16012KT 34/11 A3005 RMK A01 T03430111  RH  025%=      5-min Rain = 0
KBWS 210055Z 16011KT 34/11 A3005 RMK A01 T03420111  RH  025%=      5-min Rain = 0
KBWS 210100Z 17010KT 34/11 A3005 RMK A01 T03410113  RH  026%=      5-min Rain = 0
KBWS 210105Z 17009KT 34/11 A3006 RMK A01 T03390113  RH  026%=      5-min Rain = 0
KBWS 210110Z 15009KT 34/11 A3006 RMK A01 T03370112  RH  026%=      5-min Rain = 0
KBWS 210115Z 16008KT 33/11 A3006 RMK A01 T03340110  RH  026%=      5-min Rain = 0
KBWS 210120Z 16008KT 33/11 A3006 RMK A01 T03320111  RH  027%=      5-min Rain = 0
KBWS 210125Z 16008KT 33/11 A3006 RMK A01 T03300110  RH  027%=      5-min Rain = 0
KBWS 210130Z 16008KT 33/11 A3006 RMK A01 T03260111  RH  028%=      5-min Rain = 0
KBWS 210135Z 16008KT 32/11 A3006 RMK A01 T03230111  RH  028%=      5-min Rain = 0
KBWS 210140Z 16008KT 32/11 A3007 RMK A01 T03210111  RH  029%=      5-min Rain = 0
KBWS 210145Z 16008KT 32/11 A3007 RMK A01 T03190112  RH  029%=      5-min Rain = 0
KBWS 210150Z 16008KT 32/11 A3007 RMK A01 T03160112  RH  030%=      5-min Rain = 0
KBWS 210155Z 16007KT 31/11 A3007 RMK A01 T03130112  RH  030%=      5-min Rain = 0
KBWS 210200Z 16007KT 31/11 A3007 RMK A01 T03110112  RH  031%=      5-min Rain = 0
KBWS 210205Z 16007KT 31/11 A3007 RMK A01 T03080112  RH  031%=      5-min Rain = 0
KBWS 210210Z 16007KT 31/11 A3007 RMK A01 T03050112  RH  031%=      5-min Rain = 0
KBWS 210215Z 16007KT 30/11 A3007 RMK A01 T03040111  RH  032%=      5-min Rain = 0
KBWS 210220Z 16007KT 30/11 A3008 RMK A01 T03010112  RH  032%=      5-min Rain = 0
KBWS 210225Z 16007KT 30/11 A3008 RMK A01 T02990112  RH  033%=      5-min Rain = 0
KBWS 210230Z 15007KT 30/11 A3008 RMK A01 T02970113  RH  033%=      5-min Rain = 0
KBWS 210235Z 15007KT 29/11 A3008 RMK A01 T02940113  RH  034%=      5-min Rain = 0
KBWS 210240Z 15006KT 29/11 A3008 RMK A01 T02920112  RH  034%=      5-min Rain = 0
KBWS 210245Z 15007KT 29/11 A3008 RMK A01 T02900113  RH  035%=      5-min Rain = 0
KBWS 210250Z 15007KT 29/12 A3008 RMK A01 T02880115  RH  036%=      5-min Rain = 0
KBWS 210255Z 14006KT 29/12 A3009 RMK A01 T02850117  RH  037%=      5-min Rain = 0
KBWS 210300Z 14006KT 28/12 A3009 RMK A01 T02810118  RH  038%=      5-min Rain = 0
KBWS 210305Z 14006KT 28/12 A3009 RMK A01 T02790118  RH  038%=      5-min Rain = 0
KBWS 210310Z 14007KT 28/12 A3009 RMK A01 T02790119  RH  038%=      5-min Rain = 0
KBWS 210315Z 14008KT 28/12 A3009 RMK A01 T02810120  RH  038%=      5-min Rain = 0
KBWS 210320Z 14007KT 28/12 A3009 RMK A01 T02800121  RH  039%=      5-min Rain = 0
KBWS 210325Z 14008KT 28/12 A3009 RMK A01 T02810121  RH  038%=      5-min Rain = 0
KBWS 210330Z 14008KT 28/12 A301 RMK A01 T02810121  RH  039%=      5-min Rain = 0
KBWS 210335Z 14009KT 28/12 A301 RMK A01 T02810122  RH  039%=      5-min Rain = 0
KBWS 210340Z 15009KT 28/12 A301 RMK A01 T02810122  RH  039%=      5-min Rain = 0
KBWS 210345Z 15009KT 28/12 A301 RMK A01 T02810123  RH  039%=      5-min Rain = 0
KBWS 210350Z 15009KT 28/12 A301 RMK A01 T02810123  RH  039%=      5-min Rain = 0
KBWS 210355Z 15009KT 28/12 A301 RMK A01 T02810124  RH  039%=      5-min Rain = 0
KBWS 210400Z 15009KT 28/13 A301 RMK A01 T02800125  RH  040%=      5-min Rain = 0
KBWS 210405Z 14009KT 28/13 A301 RMK A01 T02800125  RH  040%=      5-min Rain = 0
KBWS 210410Z 15009KT 28/13 A301 RMK A01 T02800125  RH  040%=      5-min Rain = 0
KBWS 210415Z 15009KT 28/13 A301 RMK A01 T02790125  RH  040%=      5-min Rain = 0
KBWS 210420Z 15010KT 28/13 A301 RMK A01 T02790126  RH  040%=      5-min Rain = 0
KBWS 210425Z 15010KT 28/13 A301 RMK A01 T02800126  RH  040%=      5-min Rain = 0
KBWS 210430Z 15010KT 28/13 A301 RMK A01 T02790126  RH  040%=      5-min Rain = 0
KBWS 210435Z 15010KT 28/13 A301 RMK A01 T02770127  RH  041%=      5-min Rain = 0
KBWS 210440Z 15010KT 28/13 A301 RMK A01 T02760128  RH  042%=      5-min Rain = 0
KBWS 210445Z 15011KT 28/13 A3009 RMK A01 T02760129  RH  042%=      5-min Rain = 0
KBWS 210450Z 15011KT 28/13 A3009 RMK A01 T02760129  RH  042%=      5-min Rain = 0
KBWS 210455Z 15011KT 28/13 A3009 RMK A01 T02750129  RH  042%=      5-min Rain = 0

Page generated in 0.0091 seconds.